Time;durP1;ratioP1;P1;durP2;ratioP2;P2;SDS_P1;SDS_P2;PMS_P1;PMS_P2;Temp;Humidity;BMP_temperature;BMP_pressure;BME280_temperature;BME280_humidity;BME280_pressure;Samples;Min_cycle;Max_cycle;Signal;HPM_P1;HPM_P2
2021/11/13 00:00:04;;;;;;;41.43;26.67;;;7.10;99.90;;;;;;4993683;28;20462;-65
2021/11/13 00:02:43;;;;;;;38.27;26.57;;;7.10;99.90;;;;;;4995622;28;20724;-65
2021/11/13 00:05:13;;;;;;;40.83;26.33;;;7.10;99.90;;;;;;5009079;28;20340;-65
2021/11/13 00:07:41;;;;;;;41.93;27.30;;;7.10;99.90;;;;;;5006594;28;20913;-65
2021/11/13 00:10:11;;;;;;;37.63;25.80;;;7.10;99.90;;;;;;5011102;28;20402;-65
2021/11/13 00:12:40;;;;;;;41.17;26.60;;;7.00;99.90;;;;;;5013081;28;20240;-65
2021/11/13 00:15:11;;;;;;;38.77;26.37;;;7.10;99.90;;;;;;5011283;28;20319;-65
2021/11/13 00:17:39;;;;;;;36.53;25.27;;;7.10;99.90;;;;;;5007391;28;20798;-65
2021/11/13 00:20:08;;;;;;;38.77;26.33;;;7.10;99.90;;;;;;5010232;28;20241;-65
2021/11/13 00:22:38;;;;;;;37.83;25.57;;;7.00;99.90;;;;;;5008714;28;20328;-65
2021/11/13 00:25:07;;;;;;;37.10;25.13;;;7.00;99.90;;;;;;5012360;28;20241;-65
2021/11/13 00:27:35;;;;;;;36.47;26.17;;;7.00;99.90;;;;;;5011254;28;20596;-65
2021/11/13 00:30:04;;;;;;;37.07;24.97;;;7.00;99.90;;;;;;5013103;28;20237;-65
2021/11/13 00:32:33;;;;;;;38.87;26.07;;;7.00;99.90;;;;;;5016554;28;20314;-65
2021/11/13 00:35:01;;;;;;;38.03;26.07;;;7.00;99.90;;;;;;5012835;28;20255;-65
2021/11/13 00:37:30;;;;;;;34.70;24.70;;;6.90;99.90;;;;;;5005174;28;20732;-65
2021/11/13 00:40:00;;;;;;;38.23;25.90;;;7.00;99.90;;;;;;5018172;28;20237;-65
2021/11/13 00:42:29;;;;;;;35.67;24.70;;;6.90;99.90;;;;;;5012866;28;20319;-65
2021/11/13 00:44:57;;;;;;;36.60;26.23;;;6.90;99.90;;;;;;5007564;28;20644;-65
2021/11/13 00:47:27;;;;;;;36.73;25.53;;;6.90;99.90;;;;;;5013598;28;20304;-65
2021/11/13 00:49:55;;;;;;;38.60;24.27;;;6.90;99.90;;;;;;5011810;28;20296;-65
2021/11/13 00:52:23;;;;;;;38.67;25.77;;;6.80;99.90;;;;;;5015172;28;20622;-65
2021/11/13 00:54:51;;;;;;;35.97;25.47;;;6.80;99.90;;;;;;5011616;28;20244;-65
2021/11/13 00:57:20;;;;;;;38.37;25.80;;;6.80;99.90;;;;;;5014735;28;20739;-65
2021/11/13 00:59:49;;;;;;;35.47;24.97;;;6.80;99.90;;;;;;5017106;28;20291;-65
2021/11/13 01:02:17;;;;;;;35.90;25.20;;;6.80;99.90;;;;;;5016009;28;20271;-65
2021/11/13 01:04:45;;;;;;;35.43;24.83;;;6.80;99.90;;;;;;5012159;28;20239;-65
2021/11/13 01:07:13;;;;;;;33.60;23.27;;;6.80;99.90;;;;;;5017439;28;20331;-65
2021/11/13 01:09:41;;;;;;;36.30;25.10;;;6.90;99.90;;;;;;5019711;28;20236;-65
2021/11/13 01:12:10;;;;;;;37.77;25.70;;;6.90;99.90;;;;;;5013935;28;21150;-65
2021/11/13 01:14:41;;;;;;;35.23;24.43;;;6.90;99.90;;;;;;5022746;28;20238;-65
2021/11/13 01:17:12;;;;;;;35.13;25.43;;;6.90;99.90;;;;;;5008523;28;20237;-65
2021/11/13 01:19:45;;;;;;;34.60;23.77;;;6.90;99.90;;;;;;5012733;28;20330;-65
2021/11/13 01:22:13;;;;;;;36.27;24.20;;;6.90;99.90;;;;;;5008526;28;20651;-65
2021/11/13 01:24:41;;;;;;;33.80;24.67;;;6.90;99.90;;;;;;5006009;28;20237;-65
2021/11/13 01:27:10;;;;;;;33.23;23.73;;;6.90;99.90;;;;;;5016847;28;20708;-65
2021/11/13 01:29:40;;;;;;;38.27;25.93;;;7.00;99.90;;;;;;5013750;28;20316;-65
2021/11/13 01:32:08;;;;;;;33.43;24.23;;;7.00;99.90;;;;;;5017306;28;20247;-65
2021/11/13 01:34:39;;;;;;;33.73;24.20;;;7.00;99.90;;;;;;5019939;28;20236;-65
2021/11/13 01:37:08;;;;;;;33.80;24.27;;;7.00;99.90;;;;;;5015160;28;20291;-66
2021/11/13 01:39:37;;;;;;;36.03;24.40;;;6.90;99.90;;;;;;5014913;28;20259;-65
2021/11/13 01:42:06;;;;;;;34.07;24.67;;;7.00;99.90;;;;;;5008487;28;20237;-65
2021/11/13 01:44:35;;;;;;;35.43;24.17;;;6.90;99.90;;;;;;5011439;28;20667;-66
2021/11/13 01:47:08;;;;;;;32.30;24.10;;;7.00;99.90;;;;;;5005893;28;20233;-66
2021/11/13 01:49:37;;;;;;;32.83;22.90;;;7.00;99.90;;;;;;5011601;28;20299;-65
2021/11/13 01:52:09;;;;;;;32.73;24.03;;;7.00;99.90;;;;;;5006497;28;20263;-66
2021/11/13 01:54:39;;;;;;;33.23;24.30;;;7.00;99.90;;;;;;5010887;28;20332;-65
2021/11/13 01:57:10;;;;;;;31.30;22.87;;;7.00;99.90;;;;;;5005106;28;20295;-65
2021/11/13 01:59:41;;;;;;;32.23;23.70;;;7.00;99.90;;;;;;5013867;28;20783;-65
2021/11/13 02:02:11;;;;;;;33.17;23.37;;;7.00;99.90;;;;;;5005589;28;20249;-65
2021/11/13 02:04:39;;;;;;;31.37;23.47;;;7.00;99.90;;;;;;5013983;28;20705;-66
2021/11/13 02:07:08;;;;;;;31.93;23.73;;;6.90;99.90;;;;;;5006942;28;20249;-66
2021/11/13 02:09:36;;;;;;;33.17;23.80;;;6.90;99.90;;;;;;5013960;28;20233;-65
2021/11/13 02:12:05;;;;;;;32.07;23.77;;;7.00;99.90;;;;;;5013821;28;20769;-65
2021/11/13 02:14:33;;;;;;;32.43;24.37;;;7.00;99.90;;;;;;4993934;28;20248;-65
2021/11/13 02:17:01;;;;;;;32.30;22.90;;;6.90;99.90;;;;;;5008146;28;20629;-66
2021/11/13 02:19:32;;;;;;;33.20;23.40;;;7.00;99.90;;;;;;5006873;28;20232;-65
2021/11/13 02:22:04;;;;;;;33.63;23.57;;;7.00;99.90;;;;;;5005478;28;20284;-65
2021/11/13 02:24:32;;;;;;;30.37;23.20;;;7.00;99.90;;;;;;5010604;28;21037;-65
2021/11/13 02:27:00;;;;;;;30.07;23.13;;;7.00;99.90;;;;;;5006164;28;20251;-65
2021/11/13 02:29:28;;;;;;;32.87;23.90;;;7.00;99.90;;;;;;5006813;28;20317;-65
2021/11/13 02:31:57;;;;;;;30.80;22.73;;;7.10;99.90;;;;;;5013304;28;20646;-65
2021/11/13 02:34:25;;;;;;;32.47;23.23;;;7.10;99.90;;;;;;5014044;28;20236;-65
2021/11/13 02:36:54;;;;;;;29.13;22.60;;;7.20;99.90;;;;;;5010592;28;20267;-65
2021/11/13 02:39:23;;;;;;;28.37;22.00;;;7.10;99.90;;;;;;5016878;28;20243;-65
2021/11/13 02:41:52;;;;;;;29.33;23.13;;;7.10;99.90;;;;;;5006055;28;20669;-65
2021/11/13 02:44:21;;;;;;;28.33;22.27;;;7.10;99.90;;;;;;5017433;28;20364;-66
2021/11/13 02:46:52;;;;;;;29.80;22.80;;;7.10;99.90;;;;;;5012466;28;20240;-65
2021/11/13 02:49:21;;;;;;;29.47;23.03;;;7.20;99.90;;;;;;5011179;28;20237;-65
2021/11/13 02:51:49;;;;;;;30.70;24.07;;;7.10;99.90;;;;;;5013774;28;20269;-65
2021/11/13 02:54:17;;;;;;;32.50;23.73;;;7.10;99.90;;;;;;5013475;28;20791;-65
2021/11/13 02:56:47;;;;;;;29.57;22.90;;;7.10;99.90;;;;;;5010917;28;20232;-65
2021/11/13 02:59:16;;;;;;;31.00;23.33;;;7.10;99.90;;;;;;5009188;28;20255;-65
2021/11/13 03:01:44;;;;;;;31.67;23.07;;;7.10;99.90;;;;;;5008232;28;20241;-65
2021/11/13 03:04:12;;;;;;;30.80;23.77;;;7.20;99.90;;;;;;5019228;28;20305;-65
2021/11/13 03:06:41;;;;;;;29.30;22.23;;;7.20;99.90;;;;;;5009408;28;20291;-65
2021/11/13 03:09:09;;;;;;;28.57;22.53;;;7.20;99.90;;;;;;5010093;28;20241;-65
2021/11/13 03:11:37;;;;;;;31.00;23.43;;;7.20;99.90;;;;;;5013994;28;20264;-65
2021/11/13 03:14:06;;;;;;;28.67;22.63;;;7.20;99.90;;;;;;5011039;28;20233;-65
2021/11/13 03:16:34;;;;;;;29.67;21.70;;;7.20;99.90;;;;;;5008992;28;20749;-65
2021/11/13 03:19:04;;;;;;;31.70;22.87;;;7.10;99.90;;;;;;5017863;28;20988;-65
2021/11/13 03:21:32;;;;;;;30.90;22.80;;;7.20;99.90;;;;;;5010965;28;20237;-65
2021/11/13 03:24:03;;;;;;;31.20;23.03;;;7.20;99.90;;;;;;5017658;28;20290;-65
2021/11/13 03:26:33;;;;;;;30.77;23.23;;;7.20;99.90;;;;;;5016595;28;20713;-65
2021/11/13 03:29:14;;;;;;;30.00;22.47;;;7.20;99.90;;;;;;5015246;28;20596;-65
2021/11/13 03:31:44;;;;;;;28.93;22.17;;;7.20;99.90;;;;;;5010667;28;20367;-65
2021/11/13 03:34:12;;;;;;;30.60;22.27;;;7.20;99.90;;;;;;5008551;28;20248;-65
2021/11/13 03:36:41;;;;;;;29.97;22.93;;;7.20;99.90;;;;;;5017446;28;20644;-65
2021/11/13 03:39:09;;;;;;;29.37;23.07;;;7.10;99.90;;;;;;5015956;28;20229;-65
2021/11/13 03:41:39;;;;;;;30.57;22.73;;;7.10;99.90;;;;;;5021226;28;20640;-65
2021/11/13 03:44:07;;;;;;;30.83;23.50;;;7.10;99.90;;;;;;5014332;28;20680;-65
2021/11/13 03:46:35;;;;;;;30.17;23.47;;;7.10;99.90;;;;;;5010681;28;20618;-65
2021/11/13 03:49:04;;;;;;;30.33;23.53;;;7.10;99.90;;;;;;5010395;28;20245;-65
2021/11/13 03:51:32;;;;;;;33.00;23.60;;;7.00;99.90;;;;;;5015526;28;20570;-65
2021/11/13 03:54:02;;;;;;;32.10;24.40;;;7.00;99.90;;;;;;5021719;28;20233;-65
2021/11/13 03:56:30;;;;;;;29.77;22.57;;;7.00;99.90;;;;;;5003146;28;20229;-65
2021/11/13 03:58:58;;;;;;;32.50;23.93;;;7.00;99.90;;;;;;5018327;28;20229;-65
2021/11/13 04:01:26;;;;;;;30.50;23.77;;;7.00;99.90;;;;;;5006944;28;20406;-65
2021/11/13 04:03:54;;;;;;;30.83;23.50;;;7.00;99.90;;;;;;5010112;28;20312;-65
2021/11/13 04:06:25;;;;;;;32.40;24.03;;;7.00;99.90;;;;;;5018790;28;20237;-65
2021/11/13 04:08:53;;;;;;;32.77;24.57;;;7.00;99.90;;;;;;5014741;28;20261;-65
2021/11/13 04:11:21;;;;;;;31.70;24.10;;;7.00;99.90;;;;;;5012853;28;20241;-65
2021/11/13 04:13:49;;;;;;;32.63;22.93;;;7.00;99.90;;;;;;5016210;28;20233;-65
2021/11/13 04:16:17;;;;;;;31.53;23.87;;;7.00;99.90;;;;;;5011225;28;20795;-65
2021/11/13 04:18:45;;;;;;;32.57;23.83;;;6.90;99.90;;;;;;5013077;28;20944;-65
2021/11/13 04:21:14;;;;;;;29.23;22.47;;;6.90;99.90;;;;;;5008899;28;20477;-65
2021/11/13 04:23:45;;;;;;;30.63;23.80;;;7.00;99.90;;;;;;5015983;28;20241;-65
2021/11/13 04:26:15;;;;;;;31.93;23.90;;;7.00;99.90;;;;;;5008017;28;20331;-65
2021/11/13 04:28:43;;;;;;;33.00;23.90;;;7.00;99.90;;;;;;5018313;28;20271;-65
2021/11/13 04:31:11;;;;;;;30.47;23.53;;;7.00;99.90;;;;;;5009409;28;20458;-65
2021/11/13 04:33:39;;;;;;;32.87;24.83;;;7.00;99.90;;;;;;5012795;28;20308;-65
2021/11/13 04:36:10;;;;;;;33.00;23.97;;;7.00;99.90;;;;;;5004950;28;20247;-65
2021/11/13 04:38:38;;;;;;;32.23;23.63;;;7.00;99.90;;;;;;5012502;28;20737;-65
2021/11/13 04:41:09;;;;;;;30.97;23.80;;;7.00;99.90;;;;;;5018215;28;20713;-65
2021/11/13 04:43:37;;;;;;;31.73;24.40;;;7.00;99.90;;;;;;5013229;28;20237;-65
2021/11/13 04:46:05;;;;;;;30.10;22.93;;;7.10;99.90;;;;;;5007996;28;20340;-65
2021/11/13 04:48:33;;;;;;;30.13;23.27;;;7.10;99.90;;;;;;5024011;28;20724;-65
2021/11/13 04:51:01;;;;;;;30.63;23.77;;;7.00;99.90;;;;;;5007645;28;20245;-65
2021/11/13 04:53:32;;;;;;;31.50;24.03;;;7.00;99.90;;;;;;5007802;28;20226;-65
2021/11/13 04:56:00;;;;;;;31.67;23.77;;;7.00;99.90;;;;;;5015222;28;20232;-65
2021/11/13 04:58:30;;;;;;;32.60;23.53;;;7.00;99.90;;;;;;5011348;28;20287;-65
2021/11/13 05:00:58;;;;;;;32.33;24.27;;;7.00;99.90;;;;;;5019053;28;20240;-65
2021/11/13 05:03:26;;;;;;;33.70;25.00;;;7.10;99.90;;;;;;5009871;28;20675;-65
2021/11/13 05:05:54;;;;;;;34.70;25.07;;;7.00;99.90;;;;;;5007023;28;20233;-65
2021/11/13 05:08:24;;;;;;;33.63;24.97;;;7.00;99.90;;;;;;5015101;28;20225;-65
2021/11/13 05:10:52;;;;;;;35.33;25.00;;;7.00;99.90;;;;;;5011298;28;20233;-65
2021/11/13 05:13:21;;;;;;;32.47;24.40;;;7.00;99.90;;;;;;5005488;28;20636;-65
2021/11/13 05:15:50;;;;;;;34.63;25.07;;;7.00;99.90;;;;;;5010015;28;20717;-65
2021/11/13 05:18:18;;;;;;;33.43;24.20;;;7.00;99.90;;;;;;5020884;28;20292;-65
2021/11/13 05:20:47;;;;;;;32.83;24.47;;;7.10;99.90;;;;;;5007109;28;20741;-65
2021/11/13 05:23:15;;;;;;;34.27;25.47;;;7.20;99.90;;;;;;5011770;28;20651;-65
2021/11/13 05:25:43;;;;;;;34.30;24.80;;;7.10;99.90;;;;;;5010485;28;20244;-65
2021/11/13 05:28:11;;;;;;;33.43;24.97;;;7.10;99.90;;;;;;5007558;28;20296;-65
2021/11/13 05:30:39;;;;;;;31.73;22.90;;;7.10;99.90;;;;;;5010751;28;20233;-65
2021/11/13 05:33:09;;;;;;;35.40;26.67;;;7.20;99.90;;;;;;5005821;28;20477;-65
2021/11/13 05:35:37;;;;;;;34.00;25.90;;;7.20;99.90;;;;;;5008774;28;20240;-65
2021/11/13 05:38:05;;;;;;;37.43;25.77;;;7.10;99.90;;;;;;5014212;28;20752;-65
2021/11/13 05:40:33;;;;;;;34.20;26.03;;;7.10;99.90;;;;;;5011455;28;20250;-65
2021/11/13 05:43:02;;;;;;;35.90;25.10;;;7.00;99.90;;;;;;5012864;28;20240;-65
2021/11/13 05:45:30;;;;;;;34.67;25.20;;;7.10;99.90;;;;;;5005848;28;20229;-65
2021/11/13 05:47:58;;;;;;;35.70;25.90;;;7.10;99.90;;;;;;5013429;28;20264;-65
2021/11/13 05:50:27;;;;;;;33.60;25.00;;;7.10;99.90;;;;;;5013779;28;20723;-65
2021/11/13 05:52:56;;;;;;;36.80;25.73;;;7.20;99.90;;;;;;5017216;28;20295;-65
2021/11/13 05:55:24;;;;;;;34.93;25.43;;;7.20;99.90;;;;;;5009872;28;20686;-65
2021/11/13 05:57:54;;;;;;;34.13;25.00;;;7.20;99.90;;;;;;5014274;28;20233;-65
2021/11/13 06:00:23;;;;;;;35.63;26.40;;;7.20;99.90;;;;;;5014293;28;20247;-65
2021/11/13 06:02:52;;;;;;;35.70;25.40;;;7.20;99.90;;;;;;5008570;28;20259;-65
2021/11/13 06:05:20;;;;;;;36.67;25.57;;;7.20;99.90;;;;;;5006238;28;20343;-65
2021/11/13 06:07:50;;;;;;;33.73;25.07;;;7.20;99.90;;;;;;5008134;28;20705;-65
2021/11/13 06:10:19;;;;;;;34.97;25.30;;;7.20;99.90;;;;;;5010237;28;20275;-65
2021/11/13 06:12:47;;;;;;;38.80;25.10;;;7.20;99.90;;;;;;5011038;28;20241;-65
2021/11/13 06:15:16;;;;;;;34.60;26.53;;;7.20;99.90;;;;;;5015529;28;20731;-65
2021/11/13 06:17:45;;;;;;;32.80;24.90;;;7.20;99.90;;;;;;5009237;28;20248;-65
2021/11/13 06:20:13;;;;;;;33.37;24.97;;;7.20;99.90;;;;;;5013331;28;20729;-65
2021/11/13 06:22:43;;;;;;;34.53;24.50;;;7.20;99.90;;;;;;5011606;28;20232;-65
2021/11/13 06:25:14;;;;;;;34.40;24.70;;;7.20;99.90;;;;;;5011808;28;20652;-65
2021/11/13 06:27:42;;;;;;;35.37;26.13;;;7.20;99.90;;;;;;5012797;28;20697;-65
2021/11/13 06:30:13;;;;;;;36.23;25.77;;;7.20;99.90;;;;;;5001811;28;20296;-65
2021/11/13 06:32:42;;;;;;;33.80;24.67;;;7.20;99.90;;;;;;5004982;28;20237;-65
2021/11/13 06:35:11;;;;;;;34.97;25.43;;;7.20;99.90;;;;;;5011355;28;20229;-65
2021/11/13 06:37:40;;;;;;;34.90;24.20;;;7.20;99.90;;;;;;4996710;28;20348;-65
2021/11/13 06:40:10;;;;;;;35.37;25.47;;;7.20;99.90;;;;;;4996914;28;20240;-65
2021/11/13 06:42:47;;;;;;;32.03;24.13;;;7.20;99.90;;;;;;4998808;28;20225;-65
2021/11/13 06:45:16;;;;;;;36.73;25.43;;;7.20;99.90;;;;;;4997621;28;20727;-65
2021/11/13 06:47:44;;;;;;;34.57;24.37;;;7.20;99.90;;;;;;4998507;28;20265;-65
2021/11/13 06:50:14;;;;;;;32.07;25.00;;;7.20;99.90;;;;;;4996529;28;20252;-65
2021/11/13 06:52:42;;;;;;;32.53;24.10;;;7.20;99.90;;;;;;4997585;28;20241;-65
2021/11/13 06:55:11;;;;;;;33.80;24.20;;;7.20;99.90;;;;;;4997389;28;20367;-65
2021/11/13 06:57:40;;;;;;;35.27;24.03;;;7.20;99.90;;;;;;4997028;28;20243;-65
2021/11/13 07:00:13;;;;;;;35.13;25.07;;;7.20;99.90;;;;;;4984303;28;20364;-65
2021/11/13 07:02:41;;;;;;;36.40;25.27;;;7.20;99.90;;;;;;4991357;28;20241;-65
2021/11/13 07:05:11;;;;;;;34.57;24.50;;;7.30;99.90;;;;;;4992949;28;20711;-65
2021/11/13 07:07:40;;;;;;;30.43;23.47;;;7.20;99.90;;;;;;4989396;28;20233;-65
2021/11/13 07:10:10;;;;;;;33.07;24.13;;;7.30;99.90;;;;;;4991860;28;20241;-65
2021/11/13 07:12:39;;;;;;;34.83;24.33;;;7.20;99.90;;;;;;4991890;28;20295;-65
2021/11/13 07:15:10;;;;;;;31.77;24.07;;;7.30;99.90;;;;;;4992189;28;20241;-65
2021/11/13 07:17:39;;;;;;;32.43;23.97;;;7.30;99.90;;;;;;4988590;28;20333;-65
2021/11/13 07:20:09;;;;;;;33.27;24.23;;;7.20;99.90;;;;;;4991877;28;20720;-65
2021/11/13 07:22:39;;;;;;;33.37;23.70;;;7.20;99.90;;;;;;4990831;28;20705;-65
2021/11/13 07:25:12;;;;;;;32.30;23.60;;;7.30;99.90;;;;;;4991645;28;20236;-65
2021/11/13 07:27:41;;;;;;;32.30;23.50;;;7.30;99.90;;;;;;4988464;28;20247;-65
2021/11/13 07:30:15;;;;;;;30.57;23.70;;;7.30;99.90;;;;;;4992121;28;20352;-65
2021/11/13 07:32:44;;;;;;;31.33;22.80;;;7.30;99.90;;;;;;4991857;28;20601;-65
2021/11/13 07:35:12;;;;;;;32.20;22.80;;;7.30;99.90;;;;;;4991603;28;20241;-65
2021/11/13 07:37:40;;;;;;;31.07;22.83;;;7.30;99.90;;;;;;4989017;28;20315;-65
2021/11/13 07:40:10;;;;;;;29.07;22.37;;;7.30;99.90;;;;;;4991787;28;21087;-65
2021/11/13 07:42:38;;;;;;;30.17;23.13;;;7.30;99.90;;;;;;4990409;28;20415;-65
2021/11/13 07:45:07;;;;;;;28.83;21.10;;;7.30;99.90;;;;;;4989729;28;20368;-65
2021/11/13 07:47:41;;;;;;;31.53;22.87;;;7.30;99.90;;;;;;4988685;28;20237;-65
2021/11/13 07:50:11;;;;;;;28.30;21.90;;;7.30;99.90;;;;;;4990237;28;20312;-65
2021/11/13 07:52:39;;;;;;;28.27;21.60;;;7.40;99.90;;;;;;4990624;28;20232;-65
2021/11/13 07:55:08;;;;;;;28.53;22.93;;;7.40;99.90;;;;;;4990343;28;20244;-65
2021/11/13 07:57:36;;;;;;;29.73;22.70;;;7.40;99.90;;;;;;4988971;28;20240;-65
2021/11/13 08:00:07;;;;;;;31.67;23.13;;;7.40;99.90;;;;;;4987673;28;20549;-65
2021/11/13 08:02:41;;;;;;;34.10;23.33;;;7.40;99.90;;;;;;4990269;28;20248;-65
2021/11/13 08:05:11;;;;;;;31.13;23.40;;;7.40;99.90;;;;;;4991136;28;20726;-65
2021/11/13 08:07:39;;;;;;;28.53;21.83;;;7.40;99.90;;;;;;4988556;28;20237;-65
2021/11/13 08:10:08;;;;;;;30.37;22.13;;;7.40;99.90;;;;;;4989347;28;20241;-65
2021/11/13 08:12:37;;;;;;;29.97;22.10;;;7.40;99.90;;;;;;4990975;28;20582;-65
2021/11/13 08:15:06;;;;;;;30.20;22.07;;;7.50;99.90;;;;;;4991647;28;20834;-65
2021/11/13 08:17:35;;;;;;;30.20;22.37;;;7.50;99.90;;;;;;4989753;28;20314;-65
2021/11/13 08:20:06;;;;;;;29.53;21.80;;;7.50;99.90;;;;;;4989778;28;21301;-65
2021/11/13 08:22:35;;;;;;;28.40;21.20;;;7.50;99.90;;;;;;4990532;28;20241;-65
2021/11/13 08:25:04;;;;;;;31.10;22.33;;;7.50;99.90;;;;;;4990835;28;20237;-65
2021/11/13 08:27:32;;;;;;;27.90;22.00;;;7.50;99.90;;;;;;5011322;28;20696;-65
2021/11/13 08:30:00;;;;;;;32.03;21.60;;;7.50;99.90;;;;;;4989002;28;20239;-65
2021/11/13 08:32:30;;;;;;;29.00;21.43;;;7.50;99.90;;;;;;4991006;28;20240;-65
2021/11/13 08:34:59;;;;;;;32.40;23.40;;;7.50;99.90;;;;;;4991296;28;20423;-65
2021/11/13 08:37:28;;;;;;;30.90;22.60;;;7.60;99.90;;;;;;4988886;28;20319;-65
2021/11/13 08:39:58;;;;;;;29.20;23.10;;;7.50;99.90;;;;;;4988447;28;20237;-65
2021/11/13 08:42:26;;;;;;;27.77;20.40;;;7.50;99.90;;;;;;4990430;28;20315;-65
2021/11/13 08:44:54;;;;;;;31.57;21.27;;;7.50;99.90;;;;;;4991541;28;20771;-65
2021/11/13 08:47:24;;;;;;;26.60;20.60;;;7.60;99.90;;;;;;4991073;28;20516;-65
2021/11/13 08:49:53;;;;;;;25.97;20.33;;;7.60;99.90;;;;;;5006092;28;20240;-65
2021/11/13 08:52:22;;;;;;;27.30;20.70;;;7.60;99.90;;;;;;5005856;28;20277;-65
2021/11/13 08:54:52;;;;;;;28.27;20.97;;;7.60;99.90;;;;;;5007246;28;20240;-65
2021/11/13 08:57:20;;;;;;;28.07;21.13;;;7.60;99.90;;;;;;5009746;28;20264;-65
2021/11/13 08:59:48;;;;;;;27.70;20.70;;;7.60;99.90;;;;;;5014745;28;20233;-65
2021/11/13 09:02:19;;;;;;;29.03;20.90;;;7.60;99.90;;;;;;5010437;28;20336;-65
2021/11/13 09:04:49;;;;;;;25.63;19.77;;;7.60;99.90;;;;;;5004368;28;20709;-65
2021/11/13 09:07:19;;;;;;;28.43;22.30;;;7.60;99.90;;;;;;5012463;28;20249;-65
2021/11/13 09:09:49;;;;;;;27.17;21.20;;;7.60;99.90;;;;;;5007089;28;20243;-65
2021/11/13 09:12:25;;;;;;;29.77;21.00;;;7.60;99.90;;;;;;5006036;28;20240;-65
2021/11/13 09:14:55;;;;;;;25.83;20.23;;;7.60;99.90;;;;;;5004940;28;20236;-65
2021/11/13 09:17:23;;;;;;;25.07;18.87;;;7.60;99.90;;;;;;5006536;28;20241;-65
2021/11/13 09:19:52;;;;;;;26.37;20.83;;;7.70;99.90;;;;;;5010734;28;20613;-65
2021/11/13 09:22:20;;;;;;;26.20;20.10;;;7.70;99.90;;;;;;5013351;28;21363;-65
2021/11/13 09:24:49;;;;;;;28.67;20.43;;;7.60;99.90;;;;;;5008389;28;20241;-65
2021/11/13 09:27:18;;;;;;;23.53;18.90;;;7.60;99.90;;;;;;5010552;28;20236;-65
2021/11/13 09:29:50;;;;;;;29.60;19.90;;;7.70;99.90;;;;;;5011663;28;20241;-65
2021/11/13 09:32:19;;;;;;;26.33;19.20;;;7.60;99.90;;;;;;5022115;28;20240;-65
2021/11/13 09:34:47;;;;;;;28.80;20.57;;;7.70;99.90;;;;;;5005955;28;20236;-65
2021/11/13 09:37:15;;;;;;;23.90;18.13;;;7.70;99.90;;;;;;5013050;28;20315;-63
2021/11/13 09:39:43;;;;;;;28.70;19.23;;;7.70;99.90;;;;;;5014944;28;20239;-63
2021/11/13 09:42:12;;;;;;;25.43;19.30;;;7.70;99.90;;;;;;5006953;28;20320;-63
2021/11/13 09:44:42;;;;;;;24.70;18.73;;;7.70;99.90;;;;;;5012558;28;20294;-63
2021/11/13 09:47:11;;;;;;;26.70;19.57;;;7.70;99.90;;;;;;5004189;28;20233;-63
2021/11/13 09:49:39;;;;;;;26.70;19.33;;;7.70;99.90;;;;;;5006119;28;20240;-63
2021/11/13 09:52:08;;;;;;;27.87;19.67;;;7.70;99.90;;;;;;5004332;28;20241;-63
2021/11/13 09:54:36;;;;;;;26.63;19.70;;;7.70;99.90;;;;;;5011386;28;20234;-63
2021/11/13 09:57:05;;;;;;;28.30;19.20;;;7.70;99.90;;;;;;5006501;28;20248;-63
2021/11/13 09:59:33;;;;;;;30.27;21.40;;;7.80;99.90;;;;;;5015929;28;20244;-63
2021/11/13 10:02:04;;;;;;;30.57;23.00;;;7.80;99.90;;;;;;5013086;28;20229;-63
2021/11/13 10:04:32;;;;;;;34.90;22.23;;;7.80;99.90;;;;;;5004981;28;20236;-63
2021/11/13 10:07:00;;;;;;;32.00;21.03;;;7.80;99.90;;;;;;5005339;28;20340;-63
2021/11/13 10:09:28;;;;;;;30.97;21.13;;;7.80;99.90;;;;;;5005789;28;20752;-63
2021/11/13 10:11:57;;;;;;;26.63;20.67;;;7.80;99.90;;;;;;5006174;28;20574;-63
2021/11/13 10:14:36;;;;;;;31.00;23.00;;;7.80;99.90;;;;;;5009279;28;20718;-63
2021/11/13 10:17:17;;;;;;;31.80;22.13;;;7.80;99.90;;;;;;5007170;28;20791;-63
2021/11/13 10:19:45;;;;;;;28.47;22.03;;;7.80;99.90;;;;;;5009061;28;20311;-63
2021/11/13 10:22:14;;;;;;;25.87;20.13;;;7.80;99.90;;;;;;5006409;28;20237;-63
2021/11/13 10:24:48;;;;;;;30.27;21.60;;;7.80;99.90;;;;;;5007356;28;20237;-63
2021/11/13 10:27:17;;;;;;;29.53;20.40;;;7.80;99.90;;;;;;5009605;28;20622;-63
2021/11/13 10:29:47;;;;;;;28.63;20.20;;;7.80;99.90;;;;;;5015138;28;20691;-63
2021/11/13 10:32:19;;;;;;;27.53;20.93;;;7.90;99.90;;;;;;5006275;28;20715;-63
2021/11/13 10:34:51;;;;;;;29.63;21.30;;;7.90;99.90;;;;;;5000252;28;20264;-63
2021/11/13 10:37:21;;;;;;;28.13;20.63;;;7.90;99.90;;;;;;5007765;28;20252;-62
2021/11/13 10:39:58;;;;;;;26.97;20.87;;;7.90;99.90;;;;;;5007614;28;20691;-63
2021/11/13 10:42:26;;;;;;;30.67;21.20;;;7.90;99.90;;;;;;4998299;28;20253;-63
2021/11/13 10:44:58;;;;;;;27.80;20.57;;;7.90;99.90;;;;;;5010226;28;20263;-63
2021/11/13 10:47:32;;;;;;;29.10;20.77;;;7.90;99.90;;;;;;5012730;28;20679;-63
2021/11/13 10:50:15;;;;;;;27.97;21.00;;;7.90;99.90;;;;;;5006413;28;20241;-63
2021/11/13 10:52:56;;;;;;;27.67;20.10;;;7.90;99.90;;;;;;4998279;28;20240;-63
2021/11/13 10:55:25;;;;;;;24.13;20.17;;;8.00;99.90;;;;;;5004949;28;20652;-63
2021/11/13 10:58:28;;;;;;;27.43;19.33;;;8.00;99.90;;;;;;5006192;28;20730;-62
2021/11/13 11:00:56;;;;;;;28.80;21.53;;;8.00;99.90;;;;;;5006934;28;20272;-63
2021/11/13 11:03:31;;;;;;;25.63;19.67;;;8.00;99.90;;;;;;5005246;28;20243;-62
2021/11/13 11:05:59;;;;;;;26.37;19.53;;;8.00;99.90;;;;;;5010257;28;20319;-63
2021/11/13 11:08:30;;;;;;;26.63;19.83;;;8.10;99.90;;;;;;5017453;28;20239;-63
2021/11/13 11:10:59;;;;;;;23.60;18.43;;;8.10;99.90;;;;;;5001682;28;20240;-63
2021/11/13 11:13:47;;;;;;;23.60;19.00;;;8.00;99.90;;;;;;5016148;28;20316;-63
2021/11/13 11:16:24;;;;;;;24.10;18.67;;;8.00;99.90;;;;;;5011281;28;20628;-63
2021/11/13 11:18:59;;;;;;;24.67;19.03;;;8.00;99.90;;;;;;5013698;28;20236;-63
2021/11/13 11:21:38;;;;;;;24.03;18.87;;;8.10;99.90;;;;;;5009462;28;20232;-63
2021/11/13 11:24:12;;;;;;;25.80;20.80;;;8.10;99.90;;;;;;5018192;28;20299;-63
2021/11/13 11:26:41;;;;;;;24.60;20.23;;;8.10;99.90;;;;;;5018604;28;20720;-63
2021/11/13 11:29:09;;;;;;;24.70;19.43;;;8.10;99.90;;;;;;5017042;28;20245;-63
2021/11/13 11:31:44;;;;;;;24.03;18.83;;;8.10;99.90;;;;;;5011854;28;20666;-63
2021/11/13 11:34:22;;;;;;;21.77;17.40;;;8.20;99.90;;;;;;5022646;28;20723;-63
2021/11/13 11:36:50;;;;;;;20.30;17.23;;;8.20;99.90;;;;;;5008395;28;20327;-65
2021/11/13 11:39:19;;;;;;;23.10;18.63;;;8.30;99.90;;;;;;5016360;28;20251;-65
2021/11/13 11:41:47;;;;;;;20.67;16.93;;;8.30;99.90;;;;;;5005763;28;20304;-65
2021/11/13 11:44:17;;;;;;;23.30;17.70;;;8.30;99.90;;;;;;5017143;28;20240;-65
2021/11/13 11:46:46;;;;;;;19.47;15.77;;;8.30;99.90;;;;;;5012737;28;20244;-65
2021/11/13 11:49:15;;;;;;;18.50;15.67;;;8.30;99.90;;;;;;5010392;28;20245;-65
2021/11/13 11:51:46;;;;;;;24.73;19.67;;;8.30;99.90;;;;;;5013133;28;20233;-65
2021/11/13 11:54:16;;;;;;;23.27;19.67;;;8.30;99.90;;;;;;5021274;28;20240;-65
2021/11/13 11:56:45;;;;;;;23.57;18.93;;;8.40;99.90;;;;;;5007982;28;20255;-65
2021/11/13 11:59:15;;;;;;;21.73;18.07;;;8.40;99.90;;;;;;5009142;28;20249;-65
2021/11/13 12:01:44;;;;;;;22.53;17.37;;;8.40;99.90;;;;;;5007220;28;20233;-65
2021/11/13 12:04:18;;;;;;;21.53;17.67;;;8.40;99.90;;;;;;5015836;28;20260;-65
2021/11/13 12:06:53;;;;;;;23.97;19.40;;;8.30;99.90;;;;;;5008840;28;20244;-65
2021/11/13 12:09:24;;;;;;;20.87;18.00;;;8.30;99.90;;;;;;5015548;28;20692;-65
2021/11/13 12:12:13;;;;;;;21.60;18.67;;;8.30;99.90;;;;;;5010093;28;20711;-65
2021/11/13 12:14:43;;;;;;;20.70;17.43;;;8.30;99.90;;;;;;5012557;28;20701;-65
2021/11/13 12:17:30;;;;;;;22.67;18.13;;;8.40;99.90;;;;;;5007410;28;20650;-63
2021/11/13 12:20:30;;;;;;;17.63;15.73;;;8.40;99.90;;;;;;5016052;28;20245;-63
2021/11/13 12:23:10;;;;;;;18.73;15.67;;;8.40;99.90;;;;;;5006991;28;20730;-63
2021/11/13 12:25:40;;;;;;;19.67;16.87;;;8.40;99.90;;;;;;5007999;28;20237;-63
2021/11/13 12:28:12;;;;;;;18.87;16.87;;;8.40;99.90;;;;;;5008177;28;20256;-63
2021/11/13 12:30:48;;;;;;;19.67;16.83;;;8.40;99.90;;;;;;5009361;28;20229;-63
2021/11/13 12:33:53;;;;;;;20.77;16.90;;;8.40;99.90;;;;;;5018150;28;20244;-64
2021/11/13 12:36:28;;;;;;;17.63;15.73;;;8.50;99.90;;;;;;5009709;28;20474;-63
2021/11/13 12:39:07;;;;;;;18.67;16.47;;;8.40;99.90;;;;;;5016307;28;20612;-63
2021/11/13 12:42:04;;;;;;;23.67;19.07;;;8.50;99.90;;;;;;5006812;28;20241;-64
2021/11/13 12:44:36;;;;;;;17.87;15.97;;;8.50;99.90;;;;;;5012492;28;20265;-63
2021/11/13 12:47:11;;;;;;;18.73;16.70;;;8.50;99.90;;;;;;5012452;28;20232;-63
2021/11/13 12:49:47;;;;;;;17.63;15.73;;;8.50;99.90;;;;;;5010687;28;20692;-63